Time;durP1;ratioP1;P1;durP2;ratioP2;P2;SDS_P1;SDS_P2;PMS_P1;PMS_P2;Temp;Humidity;BMP_temperature;BMP_pressure;BME280_temperature;BME280_humidity;BME280_pressure;Samples;Min_cycle;Max_cycle;Signal;HPM_P1;HPM_P2
2021/04/26 00:02:04;;;;;;;15.73;9.30;;;;;;;9.23;60.12;100226.19;5050063;28;20033;-22
2021/04/26 00:04:30;;;;;;;16.15;9.93;;;;;;;9.55;59.06;100258.28;5049937;28;20041;-22
2021/04/26 00:06:56;;;;;;;57.08;30.70;;;;;;;9.32;60.43;100266.72;5048664;28;20033;-22
2021/04/26 00:09:21;;;;;;;15.75;9.48;;;;;;;8.92;61.39;100272.00;5049926;28;20029;-22
2021/04/26 00:11:47;;;;;;;17.92;9.70;;;;;;;8.80;61.50;100276.28;5049936;28;20044;-22
2021/04/26 00:14:12;;;;;;;17.70;10.93;;;;;;;8.40;62.94;100276.16;5049635;28;20032;-22
2021/04/26 00:16:38;;;;;;;20.50;10.60;;;;;;;8.77;61.78;100261.56;5049547;28;20378;-21
2021/04/26 00:19:04;;;;;;;14.60;10.35;;;;;;;9.03;61.27;100265.25;5049635;28;20044;-21
2021/04/26 00:21:29;;;;;;;15.32;9.63;;;;;;;8.76;60.79;100277.72;5049435;28;20438;-22
2021/04/26 00:23:55;;;;;;;13.90;9.45;;;;;;;8.71;60.28;100278.31;5048599;28;20482;-20
2021/04/26 00:26:20;;;;;;;17.42;9.43;;;;;;;8.46;61.77;100278.06;5049671;28;20087;-22
2021/04/26 00:28:46;;;;;;;15.07;8.95;;;;;;;7.94;62.97;100266.97;5049636;28;20417;-22
2021/04/26 00:31:11;;;;;;;13.50;8.52;;;;;;;8.27;61.62;100282.22;5049288;28;20033;-22
2021/04/26 00:33:37;;;;;;;13.65;8.30;;;;;;;8.32;61.35;100263.06;5049231;28;20044;-22
2021/04/26 00:36:02;;;;;;;12.90;8.45;;;;;;;8.29;60.55;100260.78;5049623;28;20493;-22
2021/04/26 00:38:28;;;;;;;14.90;8.45;;;;;;;8.36;60.37;100258.97;5049313;28;20037;-22
2021/04/26 00:40:53;;;;;;;12.63;8.65;;;;;;;8.74;59.47;100279.75;5048877;28;20090;-22
2021/04/26 00:43:19;;;;;;;17.35;8.93;;;;;;;8.90;59.55;100283.88;5049132;28;20040;-22
2021/04/26 00:45:44;;;;;;;14.38;8.65;;;;;;;8.35;60.21;100276.75;5048988;28;20097;-22
2021/04/26 00:48:10;;;;;;;15.63;9.02;;;;;;;8.69;60.10;100292.84;5048687;28;20578;-22
2021/04/26 00:50:36;;;;;;;14.70;9.27;;;;;;;8.47;60.95;100294.81;5049063;28;20035;-22
2021/04/26 00:53:02;;;;;;;15.90;9.27;;;;;;;8.08;61.28;100285.63;5048840;28;20033;-22
2021/04/26 00:55:29;;;;;;;16.25;10.32;;;;;;;8.39;61.54;100299.25;5049012;28;20370;-21
2021/04/26 00:57:54;;;;;;;16.27;10.75;;;;;;;8.30;62.62;100311.06;5048944;28;20436;-21
2021/04/26 01:00:21;;;;;;;16.40;11.02;;;;;;;7.90;63.99;100310.03;5048816;28;20021;-21
2021/04/26 01:02:46;;;;;;;16.40;10.13;;;;;;;7.82;64.46;100306.50;5048624;28;20033;-21
2021/04/26 01:05:17;;;;;;;15.15;9.38;;;;;;;7.61;63.87;100294.13;5049436;28;20798;-22
2021/04/26 01:07:43;;;;;;;17.08;9.65;;;;;;;7.75;63.39;100283.63;5047738;28;20062;-21
2021/04/26 01:10:10;;;;;;;15.45;9.73;;;;;;;7.74;62.19;100279.31;5049046;28;20140;-22
2021/04/26 01:13:07;;;;;;;13.82;9.20;;;;;;;7.75;63.23;100302.19;5047597;28;20198;-21
2021/04/26 01:15:35;;;;;;;14.43;8.57;;;;;;;7.19;63.34;100303.81;5047894;28;20492;-22
2021/04/26 01:18:07;;;;;;;16.20;10.32;;;;;;;7.10;64.64;100278.44;5047342;28;20028;-22
2021/04/26 01:20:39;;;;;;;16.30;10.98;;;;;;;7.06;65.81;100306.34;5047140;28;20068;-22
2021/04/26 01:23:35;;;;;;;19.15;11.48;;;;;;;7.32;65.52;100297.81;5048521;28;20055;-20
2021/04/26 01:26:01;;;;;;;17.85;11.52;;;;;;;7.61;64.27;100304.75;5048530;28;20539;-22
2021/04/26 01:28:43;;;;;;;17.52;11.27;;;;;;;7.55;64.37;100307.38;5030643;28;20025;-22
2021/04/26 01:31:16;;;;;;;19.27;11.98;;;;;;;7.20;64.97;100305.44;5047547;28;20045;-22
2021/04/26 01:34:00;;;;;;;18.25;10.23;;;;;;;6.71;66.20;100305.38;5046153;28;20044;-23
2021/04/26 01:36:26;;;;;;;18.80;10.90;;;;;;;6.78;66.74;100285.06;5030256;28;20404;-22
2021/04/26 01:38:52;;;;;;;15.98;10.85;;;;;;;6.98;66.78;100301.97;5030116;28;20025;-20
2021/04/26 01:41:18;;;;;;;18.00;11.02;;;;;;;6.57;67.96;100291.16;5047067;28;20025;-21
2021/04/26 01:43:43;;;;;;;19.45;11.13;;;;;;;6.75;66.56;100283.59;5030435;28;20459;-20
2021/04/26 01:46:10;;;;;;;15.88;10.02;;;;;;;6.92;65.24;100280.72;5046883;28;20076;-22
2021/04/26 01:48:39;;;;;;;16.80;10.95;;;;;;;6.96;66.14;100303.19;5046537;28;20084;-22
2021/04/26 01:51:05;;;;;;;17.75;11.35;;;;;;;7.21;65.57;100277.94;5046735;28;20032;-21
2021/04/26 01:53:30;;;;;;;16.00;10.27;;;;;;;6.67;66.20;100299.63;5048163;28;20078;-22
2021/04/26 01:56:00;;;;;;;16.80;9.77;;;;;;;6.29;67.15;100299.78;5030066;28;20812;-22
2021/04/26 01:58:26;;;;;;;19.40;10.57;;;;;;;6.99;64.36;100292.22;5046507;28;20041;-21
2021/04/26 02:00:51;;;;;;;17.73;10.88;;;;;;;7.27;63.98;100283.47;5029955;28;20044;-21
2021/04/26 02:03:20;;;;;;;16.85;10.77;;;;;;;7.70;62.27;100283.38;5047757;28;20147;-22
2021/04/26 02:05:46;;;;;;;15.68;9.73;;;;;;;7.62;62.49;100285.16;5030209;28;20029;-20
2021/04/26 02:08:12;;;;;;;16.45;10.30;;;;;;;7.58;62.37;100291.88;5046648;28;20036;-22
2021/04/26 02:10:38;;;;;;;23.38;10.63;;;;;;;7.69;61.91;100274.59;5046019;28;20033;-22
2021/04/26 02:13:05;;;;;;;15.93;9.77;;;;;;;7.67;61.66;100281.94;5046436;28;20041;-22
2021/04/26 02:15:30;;;;;;;17.98;10.23;;;;;;;7.38;62.47;100298.88;5029780;28;20507;-22
2021/04/26 02:17:56;;;;;;;15.85;9.73;;;;;;;6.68;64.14;100305.75;5047469;28;20033;-22
2021/04/26 02:20:21;;;;;;;15.60;9.55;;;;;;;6.24;65.14;100295.06;5047464;28;20025;-22
2021/04/26 02:22:51;;;;;;;14.52;8.52;;;;;;;5.23;68.34;100302.53;5047176;28;20386;-22
2021/04/26 02:25:16;;;;;;;14.30;9.00;;;;;;;5.02;68.81;100271.47;5047177;28;20389;-22
2021/04/26 02:27:42;;;;;;;14.55;9.07;;;;;;;4.97;68.94;100275.66;5047342;28;20129;-23
2021/04/26 02:30:08;;;;;;;16.60;9.52;;;;;;;5.70;67.67;100302.44;5047243;28;20488;-22
2021/04/26 02:32:43;;;;;;;15.55;9.18;;;;;;;5.53;67.57;100294.66;5047314;28;20029;-21
2021/04/26 02:35:09;;;;;;;18.77;10.13;;;;;;;6.28;65.21;100292.06;5046305;28;20029;-22
2021/04/26 02:37:49;;;;;;;16.80;10.95;;;;;;;6.46;64.94;100302.22;5029526;28;20071;-22
2021/04/26 02:40:15;;;;;;;13.32;9.55;;;;;;;6.39;65.24;100310.91;5045840;28;20024;-22
2021/04/26 02:42:41;;;;;;;15.07;9.00;;;;;;;6.65;63.86;100312.25;5028952;28;20040;-22
2021/04/26 02:45:08;;;;;;;16.55;10.68;;;;;;;6.88;63.00;100316.56;5045838;28;20028;-22
2021/04/26 02:47:33;;;;;;;16.40;10.10;;;;;;;6.62;63.31;100294.91;5046983;28;20029;-21
2021/04/26 02:50:04;;;;;;;14.60;9.73;;;;;;;6.43;63.11;100295.47;5045519;28;20110;-21
2021/04/26 02:52:30;;;;;;;16.67;9.95;;;;;;;6.47;64.08;100309.19;5047150;28;20116;-22
2021/04/26 02:54:55;;;;;;;15.40;10.18;;;;;;;6.77;63.26;100310.75;5045565;28;20481;-22
2021/04/26 02:57:20;;;;;;;17.85;9.68;;;;;;;6.75;62.05;100294.22;5029126;28;20037;-22
2021/04/26 02:59:46;;;;;;;17.02;9.30;;;;;;;7.04;61.70;100308.34;5047144;28;20025;-22
2021/04/26 03:02:11;;;;;;;17.00;9.75;;;;;;;7.11;62.43;100301.31;5029274;28;20036;-22
2021/04/26 03:04:37;;;;;;;15.65;9.63;;;;;;;6.89;62.16;100305.78;5045459;28;20063;-21
2021/04/26 03:07:05;;;;;;;16.95;9.57;;;;;;;6.78;63.53;100311.56;5047188;28;20789;-21
2021/04/26 03:09:30;;;;;;;15.95;9.77;;;;;;;6.52;62.92;100301.47;5045652;28;20028;-21
2021/04/26 03:11:56;;;;;;;16.67;10.25;;;;;;;7.00;61.07;100315.88;5029025;28;20807;-21
2021/04/26 03:14:22;;;;;;;15.57;9.95;;;;;;;6.39;63.10;100310.91;5045810;28;20048;-23
2021/04/26 03:16:47;;;;;;;16.17;9.18;;;;;;;5.63;65.56;100300.50;5028952;28;20032;-23
2021/04/26 03:19:13;;;;;;;15.70;9.25;;;;;;;5.23;67.53;100297.25;5012474;28;20466;-23
2021/04/26 03:21:38;;;;;;;17.85;10.48;;;;;;;5.59;67.36;100317.75;5045607;28;20421;-23
2021/04/26 03:24:04;;;;;;;20.05;11.90;;;;;;;5.12;68.65;100300.28;5045509;28;20075;-23
2021/04/26 03:26:31;;;;;;;17.02;10.02;;;;;;;4.87;69.50;100317.34;5046845;28;20025;-22
2021/04/26 03:28:56;;;;;;;14.85;9.25;;;;;;;5.56;66.56;100323.41;5029073;28;20489;-23
2021/04/26 03:31:22;;;;;;;15.48;10.02;;;;;;;5.64;66.59;100328.63;5045420;28;20044;-23
2021/04/26 03:33:47;;;;;;;19.33;10.85;;;;;;;5.23;67.43;100323.69;5045321;28;20390;-22
2021/04/26 03:36:13;;;;;;;16.40;10.20;;;;;;;4.89;67.30;100315.34;5045364;28;20036;-23
2021/04/26 03:38:38;;;;;;;15.18;9.93;;;;;;;5.62;65.96;100327.16;5028522;28;20033;-22
2021/04/26 03:41:04;;;;;;;16.38;10.23;;;;;;;4.91;67.38;100319.47;5028829;28;20029;-22
2021/04/26 03:43:29;;;;;;;23.00;11.27;;;;;;;4.71;67.22;100324.38;5028187;28;20485;-21
2021/04/26 03:45:56;;;;;;;27.70;11.77;;;;;;;5.76;64.76;100344.03;5045323;28;20036;-20
2021/04/26 03:48:22;;;;;;;25.13;11.45;;;;;;;6.03;63.61;100351.41;5046302;28;20055;-22
2021/04/26 03:50:47;;;;;;;19.67;10.80;;;;;;;5.27;65.17;100360.34;5046521;28;20037;-21
2021/04/26 03:53:12;;;;;;;18.20;10.95;;;;;;;5.09;67.12;100356.19;5046532;28;20041;-22
2021/04/26 03:55:38;;;;;;;18.42;12.00;;;;;;;5.50;67.13;100347.94;5046494;28;20037;-22
2021/04/26 03:58:03;;;;;;;23.95;14.32;;;;;;;5.98;65.76;100348.47;5049977;28;20532;-22
2021/04/26 04:00:29;;;;;;;22.73;13.55;;;;;;;5.95;65.40;100340.91;5050011;28;20029;-22
2021/04/26 04:02:54;;;;;;;24.33;14.48;;;;;;;5.32;68.16;100339.50;5049775;28;20123;-22
2021/04/26 04:05:20;;;;;;;27.60;16.67;;;;;;;5.09;68.47;100348.25;5050323;28;20029;-22
2021/04/26 04:07:46;;;;;;;26.73;15.80;;;;;;;5.51;67.01;100346.09;5049732;28;20035;-22
2021/04/26 04:10:13;;;;;;;26.92;16.77;;;;;;;5.22;66.67;100319.38;5049685;28;20024;-21
2021/04/26 04:12:38;;;;;;;31.42;17.63;;;;;;;5.20;67.23;100339.88;5049792;28;20036;-22
2021/04/26 04:15:05;;;;;;;27.23;16.95;;;;;;;5.82;66.32;100345.97;5049607;28;20025;-22
2021/04/26 04:17:30;;;;;;;28.33;17.95;;;;;;;5.82;66.86;100349.47;5049857;28;20112;-22
2021/04/26 04:19:55;;;;;;;22.77;12.73;;;;;;;5.38;68.70;100355.47;5049738;28;20025;-22
2021/04/26 04:22:21;;;;;;;22.88;12.40;;;;;;;5.37;69.29;100358.28;5049482;28;20036;-22
2021/04/26 04:24:46;;;;;;;28.02;16.25;;;;;;;5.68;67.83;100357.34;5049254;28;20029;-21
2021/04/26 04:27:12;;;;;;;26.15;16.75;;;;;;;6.18;66.43;100353.25;5049848;28;20535;-22
2021/04/26 04:29:38;;;;;;;30.45;21.08;;;;;;;6.74;64.83;100361.50;5049704;28;20029;-20
2021/04/26 04:32:04;;;;;;;26.75;16.25;;;;;;;6.57;65.22;100341.50;5049935;28;20037;-22
2021/04/26 04:34:30;;;;;;;25.88;15.63;;;;;;;6.87;65.08;100360.81;5048410;28;20136;-22
2021/04/26 04:36:56;;;;;;;25.25;16.30;;;;;;;6.96;65.44;100357.03;5049242;28;20040;-22
2021/04/26 04:39:22;;;;;;;19.45;12.80;;;;;;;7.13;63.63;100349.66;5049084;28;20453;-22
2021/04/26 04:41:47;;;;;;;16.38;11.55;;;;;;;7.32;65.03;100361.47;5049483;28;20044;-21
2021/04/26 04:44:13;;;;;;;18.33;11.10;;;;;;;7.46;63.44;100365.06;5049240;28;20118;-21
2021/04/26 04:46:38;;;;;;;17.80;9.95;;;;;;;7.32;64.01;100387.19;5048975;28;20025;-22
2021/04/26 04:49:04;;;;;;;14.95;9.27;;;;;;;7.17;63.66;100364.19;5049139;28;20052;-22
2021/04/26 04:51:29;;;;;;;12.57;8.50;;;;;;;7.11;64.48;100349.03;5048905;28;20036;-22
2021/04/26 04:53:55;;;;;;;12.18;8.05;;;;;;;7.11;64.57;100349.03;5048938;28;20068;-21
2021/04/26 04:56:21;;;;;;;14.93;8.57;;;;;;;7.52;64.00;100355.50;5049315;28;20040;-22
2021/04/26 04:58:46;;;;;;;16.95;9.45;;;;;;;7.55;64.49;100329.41;5048442;28;20029;-22
2021/04/26 05:01:12;;;;;;;16.00;10.25;;;;;;;7.75;64.76;100356.09;5048876;28;20044;-22
2021/04/26 05:03:37;;;;;;;19.70;10.23;;;;;;;7.79;64.79;100359.22;5048826;28;20437;-21
2021/04/26 05:06:03;;;;;;;15.20;10.27;;;;;;;7.85;64.58;100361.09;5048940;28;20033;-21
2021/04/26 05:08:28;;;;;;;13.13;8.98;;;;;;;7.73;64.72;100366.09;5048734;28;20362;-21
2021/04/26 05:10:54;;;;;;;15.60;10.00;;;;;;;7.83;65.16;100368.44;5047726;28;20043;-21
2021/04/26 05:13:19;;;;;;;17.98;10.13;;;;;;;8.08;64.91;100355.50;5048676;28;20106;-22
2021/04/26 05:15:45;;;;;;;16.42;11.00;;;;;;;8.03;65.42;100352.63;5048531;28;20032;-22
2021/04/26 05:18:10;;;;;;;17.38;10.85;;;;;;;8.55;64.57;100371.72;5048654;28;20033;-22
2021/04/26 05:20:36;;;;;;;20.90;12.10;;;;;;;8.74;64.52;100363.00;5048125;28;20029;-22
2021/04/26 05:23:01;;;;;;;20.73;12.50;;;;;;;8.61;64.77;100377.06;5048567;28;20029;-22
2021/04/26 05:25:27;;;;;;;21.25;13.20;;;;;;;8.84;64.75;100376.72;5048655;28;20040;-22
2021/04/26 05:27:52;;;;;;;19.90;13.07;;;;;;;9.32;64.09;100383.00;5047263;28;20544;-22
2021/04/26 05:30:18;;;;;;;22.40;13.48;;;;;;;8.93;64.21;100374.72;5048392;28;20428;-22
2021/04/26 05:32:44;;;;;;;20.52;12.40;;;;;;;9.29;63.62;100375.41;5048041;28;20029;-21
2021/04/26 05:35:10;;;;;;;20.73;13.23;;;;;;;9.71;62.99;100370.75;5048193;28;20036;-22
2021/04/26 05:37:35;;;;;;;20.55;11.90;;;;;;;9.98;62.43;100372.34;5048083;28;20033;-22
2021/04/26 05:40:01;;;;;;;20.05;12.20;;;;;;;9.61;62.71;100385.25;5048276;28;20409;-21
2021/04/26 05:42:26;;;;;;;19.67;12.27;;;;;;;9.77;63.37;100386.72;5049620;28;20037;-22
2021/04/26 05:44:51;;;;;;;18.70;11.95;;;;;;;9.77;63.05;100386.72;5049444;28;20040;-21
2021/04/26 05:47:17;;;;;;;19.00;11.60;;;;;;;9.74;63.36;100389.75;5048253;28;20725;-22
2021/04/26 05:49:42;;;;;;;18.00;11.13;;;;;;;9.62;64.17;100372.75;5046257;28;20052;-24
2021/04/26 05:52:08;;;;;;;19.00;11.15;;;;;;;10.18;63.17;100387.47;5047843;28;20045;-22
2021/04/26 05:54:33;;;;;;;19.65;10.93;;;;;;;10.29;62.42;100402.81;5047645;28;20024;-22
2021/04/26 05:56:59;;;;;;;18.52;10.75;;;;;;;10.03;63.17;100399.19;5048049;28;20035;-22
2021/04/26 05:59:24;;;;;;;19.48;12.30;;;;;;;10.00;63.27;100390.78;5047743;28;20021;-22
2021/04/26 06:01:50;;;;;;;18.33;11.50;;;;;;;10.39;62.36;100400.56;5047754;28;20489;-22
2021/04/26 06:04:15;;;;;;;22.50;11.68;;;;;;;10.69;62.34;100399.28;5048133;28;20045;-22
2021/04/26 06:06:41;;;;;;;18.13;10.82;;;;;;;10.45;62.31;100394.41;5047329;28;20163;-22
2021/04/26 06:09:06;;;;;;;19.90;11.68;;;;;;;10.53;62.35;100406.69;5047406;28;20032;-21
2021/04/26 06:11:32;;;;;;;20.27;11.35;;;;;;;10.70;61.57;100396.38;5047710;28;20025;-21
2021/04/26 06:13:57;;;;;;;23.77;13.52;;;;;;;10.81;61.90;100402.91;5047832;28;20086;-21
2021/04/26 06:16:22;;;;;;;18.38;12.05;;;;;;;10.76;61.71;100400.84;5048091;28;20813;-21
2021/04/26 06:18:48;;;;;;;50.10;27.98;;;;;;;10.78;61.58;100403.31;5046914;28;20051;-22
2021/04/26 06:21:14;;;;;;;21.77;14.13;;;;;;;10.86;60.16;100395.88;5047415;28;20075;-22
2021/04/26 06:23:39;;;;;;;21.08;13.02;;;;;;;10.83;60.51;100396.31;5047317;28;20412;-22
2021/04/26 06:26:05;;;;;;;22.00;14.02;;;;;;;11.21;59.12;100392.81;5047427;28;20029;-22
2021/04/26 06:28:30;;;;;;;23.60;15.02;;;;;;;11.45;58.09;100403.75;5047308;28;20037;-22
2021/04/26 06:30:56;;;;;;;20.08;13.80;;;;;;;11.35;58.00;100398.91;5047326;28;20098;-22
2021/04/26 06:33:21;;;;;;;20.17;13.65;;;;;;;11.68;56.24;100397.84;5047185;28;20028;-22
2021/04/26 06:35:51;;;;;;;20.52;13.27;;;;;;;11.36;57.19;100379.19;5047072;28;20078;-22
2021/04/26 06:38:17;;;;;;;19.30;13.40;;;;;;;11.43;58.04;100387.94;5045697;28;20040;-22
2021/04/26 06:40:43;;;;;;;25.20;16.10;;;;;;;11.58;56.43;100392.16;5046968;28;20025;-21
2021/04/26 06:43:09;;;;;;;18.55;12.95;;;;;;;11.49;56.33;100369.44;5045992;28;20048;-22
2021/04/26 06:45:34;;;;;;;59.78;41.85;;;;;;;12.01;57.43;100376.22;5047189;28;20112;-22
2021/04/26 06:48:00;;;;;;;21.98;13.63;;;;;;;11.89;57.95;100377.97;5046709;28;20420;-22
2021/04/26 06:50:26;;;;;;;23.55;14.95;;;;;;;11.81;56.97;100387.06;5047035;28;20469;-22
2021/04/26 06:52:54;;;;;;;23.58;15.35;;;;;;;12.11;56.64;100381.03;5046636;28;20120;-22
2021/04/26 06:55:19;;;;;;;21.85;14.80;;;;;;;12.52;58.18;100370.72;5047118;28;20029;-22
2021/04/26 06:57:45;;;;;;;22.60;14.48;;;;;;;12.80;55.96;100384.38;5046776;28;20512;-22
2021/04/26 07:00:11;;;;;;;20.52;12.88;;;;;;;12.95;54.08;100391.97;5046775;28;20079;-21
2021/04/26 07:02:37;;;;;;;20.50;13.70;;;;;;;12.70;53.67;100389.44;5046725;28;20390;-20
2021/04/26 07:05:02;;;;;;;22.50;14.18;;;;;;;12.64;54.73;100387.66;5047013;28;20034;-21
2021/04/26 07:07:28;;;;;;;19.70;13.25;;;;;;;12.56;55.12;100383.41;5046997;28;20029;-21
2021/04/26 07:09:53;;;;;;;19.85;12.60;;;;;;;12.98;53.56;100380.84;5046980;28;20033;-22
2021/04/26 07:12:19;;;;;;;21.05;13.45;;;;;;;12.94;55.24;100378.84;5046708;28;20044;-23
2021/04/26 07:14:44;;;;;;;22.73;13.65;;;;;;;13.16;53.37;100374.63;5046416;28;20033;-21
2021/04/26 07:17:10;;;;;;;18.67;14.68;;;;;;;13.09;55.86;100371.22;5046663;28;20041;-21
2021/04/26 07:19:35;;;;;;;18.55;12.48;;;;;;;13.10;55.91;100372.84;5046552;28;20024;-22
2021/04/26 07:22:01;;;;;;;19.95;12.90;;;;;;;13.41;52.58;100357.59;5046628;28;20563;-22
2021/04/26 07:24:26;;;;;;;23.08;17.55;;;;;;;13.72;53.49;100358.31;5047003;28;20040;-21
2021/04/26 07:26:52;;;;;;;19.63;14.13;;;;;;;14.06;53.26;100375.47;5046682;28;20029;-22
2021/04/26 07:29:17;;;;;;;17.92;11.65;;;;;;;14.07;52.30;100361.00;5046881;28;20016;-21
2021/04/26 07:31:43;;;;;;;19.75;12.88;;;;;;;13.97;52.14;100355.41;5048415;28;20033;-21
2021/04/26 07:34:08;;;;;;;17.77;12.25;;;;;;;14.20;51.10;100357.25;5050387;28;20078;-21
2021/04/26 07:36:34;;;;;;;16.27;10.93;;;;;;;14.31;50.69;100348.38;5050286;28;20036;-21
2021/04/26 07:38:59;;;;;;;17.40;12.10;;;;;;;14.21;52.19;100340.91;5050782;28;20867;-21
2021/04/26 07:41:25;;;;;;;17.35;12.02;;;;;;;14.26;51.77;100350.94;5050581;28;20091;-21
2021/04/26 07:43:50;;;;;;;22.33;13.65;;;;;;;14.55;51.06;100345.63;5050686;28;20087;-21
2021/04/26 07:46:16;;;;;;;20.35;12.73;;;;;;;14.99;50.67;100336.00;5049071;28;20037;-21
2021/04/26 07:48:41;;;;;;;17.38;13.10;;;;;;;15.33;49.11;100341.44;5049850;28;20715;-22
2021/04/26 07:51:07;;;;;;;18.98;12.63;;;;;;;15.38;50.66;100336.13;5050288;28;20508;-22
2021/04/26 07:53:33;;;;;;;17.83;12.07;;;;;;;15.36;48.85;100334.75;5050503;28;20032;-21
2021/04/26 07:55:58;;;;;;;16.15;11.10;;;;;;;15.76;47.65;100334.59;5050083;28;20482;-21
2021/04/26 07:58:24;;;;;;;16.27;11.18;;;;;;;15.88;46.60;100325.66;5050042;28;20555;-22
2021/04/26 08:00:49;;;;;;;15.60;10.32;;;;;;;16.46;46.29;100316.94;5049738;28;20017;-21
2021/04/26 08:03:15;;;;;;;14.05;10.25;;;;;;;16.07;45.21;100327.78;5049865;28;20051;-21
2021/04/26 08:05:44;;;;;;;16.00;10.02;;;;;;;16.06;45.56;100336.13;5049903;28;20512;-21
2021/04/26 08:08:10;;;;;;;13.88;9.70;;;;;;;16.44;44.02;100335.22;5050016;28;20052;-22
2021/04/26 08:10:35;;;;;;;14.93;10.27;;;;;;;16.48;45.11;100330.97;5049703;28;20021;-21
2021/04/26 08:13:01;;;;;;;16.05;10.55;;;;;;;16.22;48.72;100337.09;5049790;28;20485;-21
2021/04/26 08:15:27;;;;;;;13.95;10.13;;;;;;;16.54;46.89;100329.16;5049746;28;20409;-23
2021/04/26 08:17:52;;;;;;;20.77;9.52;;;;;;;16.81;43.78;100321.13;5049567;28;20037;-20
2021/04/26 08:20:18;;;;;;;15.30;10.02;;;;;;;16.80;45.33;100316.78;5049788;28;20063;-21
2021/04/26 08:22:43;;;;;;;15.07;11.13;;;;;;;17.47;44.50;100303.94;5049663;28;20845;-26
2021/04/26 08:25:09;;;;;;;15.52;9.63;;;;;;;17.75;43.53;100315.44;5049923;28;20123;-22
2021/04/26 08:27:35;;;;;;;12.68;8.18;;;;;;;17.22;45.50;100294.59;5048541;28;20409;-21
2021/04/26 08:30:00;;;;;;;18.58;10.68;;;;;;;17.05;44.43;100285.81;5049513;28;20033;-21
2021/04/26 08:32:26;;;;;;;14.07;9.05;;;;;;;16.35;44.86;100296.38;5049343;28;20040;-22
2021/04/26 08:34:52;;;;;;;16.52;9.55;;;;;;;16.52;44.29;100314.34;5049241;28;20040;-21
2021/04/26 08:37:17;;;;;;;12.50;9.10;;;;;;;16.73;43.90;100315.34;5049537;28;20118;-21
2021/04/26 08:39:43;;;;;;;13.13;8.90;;;;;;;17.09;43.71;100302.28;5049192;28;20075;-21
2021/04/26 08:42:09;;;;;;;14.60;9.88;;;;;;;16.84;43.83;100317.94;5049111;28;20033;-21
2021/04/26 08:44:34;;;;;;;14.18;9.27;;;;;;;17.39;42.05;100317.88;5049154;28;20075;-21
2021/04/26 08:46:59;;;;;;;14.07;9.57;;;;;;;17.85;41.00;100296.63;5049164;28;20048;-21
2021/04/26 08:49:25;;;;;;;15.65;9.02;;;;;;;17.51;42.08;100315.81;5031016;28;20056;-21
2021/04/26 08:51:50;;;;;;;12.77;8.55;;;;;;;17.41;42.80;100308.47;5049118;28;20082;-21
2021/04/26 08:54:19;;;;;;;13.23;8.20;;;;;;;17.56;41.92;100296.97;5049074;28;20083;-20
2021/04/26 08:56:45;;;;;;;16.55;8.70;;;;;;;18.13;40.13;100286.53;5049007;28;20087;-21
2021/04/26 08:59:10;;;;;;;16.52;7.82;;;;;;;18.36;40.45;100288.75;5048820;28;20477;-21
2021/04/26 09:01:36;;;;;;;12.27;7.28;;;;;;;18.12;39.65;100298.38;5049154;28;20033;-21
2021/04/26 09:04:05;;;;;;;12.00;7.78;;;;;;;18.20;40.03;100279.00;5048801;28;20043;-21
2021/04/26 09:06:51;;;;;;;12.77;7.07;;;;;;;18.43;39.53;100285.84;5048870;28;20052;-19
2021/04/26 09:09:38;;;;;;;10.90;7.90;;;;;;;18.82;37.32;100297.00;5047651;28;20481;-20
2021/04/26 09:12:05;;;;;;;16.90;11.13;;;;;;;18.52;39.76;100286.13;5048742;28;20021;-21
2021/04/26 09:14:35;;;;;;;12.73;7.63;;;;;;;18.34;40.87;100284.72;5048464;28;20041;-19
2021/04/26 09:17:23;;;;;;;12.35;6.53;;;;;;;18.65;38.79;100285.59;5048816;28;20029;-20
2021/04/26 09:19:49;;;;;;;12.10;7.22;;;;;;;18.61;40.67;100273.69;5048846;28;20025;-20
2021/04/26 09:22:14;;;;;;;10.50;7.25;;;;;;;19.02;38.30;100266.50;5048720;28;20098;-20
2021/04/26 09:24:39;;;;;;;10.40;6.80;;;;;;;18.65;38.72;100259.41;5048325;28;20087;-21
2021/04/26 09:27:12;;;;;;;10.38;6.97;;;;;;;18.51;39.21;100257.47;5048621;28;20829;-21
2021/04/26 09:29:38;;;;;;;11.20;6.80;;;;;;;18.91;39.76;100259.47;5048459;28;20037;-21
2021/04/26 09:32:17;;;;;;;11.93;6.88;;;;;;;19.44;38.50;100264.56;5048373;28;20025;-21
2021/04/26 09:34:47;;;;;;;9.38;6.30;;;;;;;18.71;38.14;100264.81;5047928;28;20060;-21
2021/04/26 09:37:21;;;;;;;10.90;6.15;;;;;;;19.26;36.79;100265.94;5048212;28;20024;-21
2021/04/26 09:40:06;;;;;;;9.88;7.05;;;;;;;19.13;36.54;100269.22;5048251;28;20036;-20
2021/04/26 09:42:38;;;;;;;10.60;6.32;;;;;;;19.64;35.03;100263.72;5048105;28;20021;-20
2021/04/26 09:45:16;;;;;;;9.15;6.32;;;;;;;19.62;37.01;100265.91;5047963;28;20504;-20
2021/04/26 09:47:41;;;;;;;10.77;7.03;;;;;;;19.65;37.69;100254.50;5047631;28;20397;-21
2021/04/26 09:50:07;;;;;;;10.98;6.70;;;;;;;20.00;37.24;100260.94;5048130;28;20049;-21
2021/04/26 09:52:33;;;;;;;10.70;7.03;;;;;;;20.04;37.01;100252.00;5047735;28;20035;-20
2021/04/26 09:54:58;;;;;;;11.65;7.00;;;;;;;20.18;35.63;100240.53;5047492;28;20056;-22
2021/04/26 09:57:24;;;;;;;11.70;7.68;;;;;;;20.99;34.15;100233.00;5046562;28;20033;-21
2021/04/26 09:59:49;;;;;;;249.02;162.40;;;;;;;20.84;35.13;100245.59;5046419;28;20021;-21
2021/04/26 10:02:14;;;;;;;8.25;5.13;;;;;;;20.81;35.19;100237.19;5046421;28;20033;-21
2021/04/26 10:04:41;;;;;;;9.70;5.47;;;;;;;20.73;33.97;100225.06;5047631;28;20033;-21
2021/04/26 10:07:06;;;;;;;8.27;5.40;;;;;;;20.83;34.37;100240.44;5030382;28;20036;-21
2021/04/26 10:09:32;;;;;;;10.45;5.55;;;;;;;21.35;31.83;100229.94;5047769;28;20492;-20
2021/04/26 10:11:57;;;;;;;11.90;7.03;;;;;;;21.47;34.14;100235.81;5046509;28;20036;-21
2021/04/26 10:14:23;;;;;;;12.98;6.57;;;;;;;21.58;34.75;100248.19;5046512;28;20032;-21
2021/04/26 10:17:00;;;;;;;9.05;6.20;;;;;;;22.06;31.19;100229.16;5047409;28;20033;-21
2021/04/26 10:19:30;;;;;;;11.10;6.60;;;;;;;22.02;32.68;100243.59;5047603;28;20036;-22
2021/04/26 10:21:57;;;;;;;7.85;5.65;;;;;;;22.43;33.12;100241.19;5046263;28;20519;-21
2021/04/26 10:24:24;;;;;;;11.82;6.78;;;;;;;21.88;34.28;100232.63;5047305;28;20028;-21
2021/04/26 10:26:53;;;;;;;12.75;6.53;;;;;;;21.86;33.32;100241.09;5046099;28;20511;-21
2021/04/26 10:29:33;;;;;;;12.75;7.60;;;;;;;22.05;34.33;100238.41;5047233;28;20025;-21
2021/04/26 10:32:02;;;;;;;12.90;6.70;;;;;;;22.61;32.44;100236.84;5047380;28;20047;-21
2021/04/26 10:34:48;;;;;;;10.93;7.32;;;;;;;22.06;33.39;100240.00;5047311;28;20032;-21
2021/04/26 10:37:16;;;;;;;12.98;7.70;;;;;;;22.21;34.31;100219.19;5046590;28;20416;-20
2021/04/26 10:40:09;;;;;;;11.50;6.93;;;;;;;22.93;31.55;100220.88;5047081;28;20103;-20
2021/04/26 10:42:52;;;;;;;8.25;5.63;;;;;;;22.27;29.03;100220.75;5046681;28;20037;-20
2021/04/26 10:45:21;;;;;;;10.80;6.68;;;;;;;23.10;29.23;100212.16;5047221;28;20036;-21
2021/04/26 10:48:10;;;;;;;11.05;5.25;;;;;;;23.32;29.80;100216.94;5046645;28;20151;-21
2021/04/26 10:50:43;;;;;;;9.52;5.40;;;;;;;24.07;29.33;100207.56;5046944;28;20493;-21
2021/04/26 10:53:09;;;;;;;6.93;4.90;;;;;;;24.21;28.84;100202.06;5047031;28;20413;-21
2021/04/26 10:55:45;;;;;;;8.25;5.13;;;;;;;24.18;27.40;100203.50;5047032;28;20029;-21
2021/04/26 10:58:23;;;;;;;10.10;6.20;;;;;;;24.58;29.57;100205.63;5047006;28;20045;-20
2021/04/26 11:00:49;;;;;;;8.52;4.97;;;;;;;24.34;27.83;100190.34;5046829;28;20119;-21
2021/04/26 11:03:17;;;;;;;8.13;5.30;;;;;;;24.21;28.40;100196.63;5046895;28;20072;-21
2021/04/26 11:05:44;;;;;;;7.35;4.85;;;;;;;23.62;29.62;100201.91;5048899;28;20029;-21
2021/04/26 11:08:30;;;;;;;7.57;4.57;;;;;;;23.65;28.62;100185.78;5051011;28;20047;-22
2021/04/26 11:11:17;;;;;;;7.88;5.25;;;;;;;23.91;28.57;100181.78;5050643;28;20067;-21
2021/04/26 11:13:52;;;;;;;;;;;;;;;24.62;28.92;100201.97;5051575;28;20037;-21
2021/04/26 11:16:20;;;;;;;7.63;4.70;;;;;;;25.19;29.90;100198.63;5051013;28;19913;-21
2021/04/26 11:18:54;;;;;;;8.20;4.55;;;;;;;24.96;27.36;100194.31;5050877;28;20198;-21